Malmstrom A F B, Montana
Current Conditions -  °F | °C
As of 12:56 AM on Thursday 23 Oct 2014 (Local Time) from KGFA Reporting Station
Clear Clear  
Wind Chill: 11°   Ceiling: Unl
Heat Index: 11°   Visibility: 10mi
Dew Point:   Wind: 25mph
Humidity: 45%   Direction: 190°S
Pressure: 29.82"   Gusts: 33mph
Location:  47.5102°N, 111.1959°W
Report Text: KGFA 230656Z AUTO 19022G29KT 10SM CLR 11/00 A2982 RMK AO2 PK WND 19028/37 SLP104 T01141002
Loading
Personal Weather Stations






























Interactive Weather Map
Tropical Storm Tracking
New forecast layout! Learn more

10-Day Weather Forecast

Advertisements
Track Severe Weather on mobile